PASIPAKT

Guest
Details From PASI - SITKA ROCKY GUTIERREZ
To PAKT - KETCHIKAN INTL
Flight Number -
Tags generated
Created
Modified
Stats Distance 160 nm / 297 km
Max Altitude 13,000 ft / 3,962 m
Waypoints 3
Social Downloads 0
Likes 0
Share VATSIM

Download

Looking for another format? Having issues loading an existing format? Contact us
Advertisement - Login to hide

Notes

Basic altitude profile: - Ascent Rate: 800ft/min - Ascent Speed: 120kts - Cruise Altitude: 6000ft - Cruise Speed: 160kts - Descent Rate: 1000ft/min - Descent Speed: 120kts Options: - Use NATs: no - Use PACOTS: no - Use low airways: yes - Use high airways: no

Route

PASI TOKEE PAKT

ID Type Via Altitude Latitude Longitude Leg Dist Tot Dist Heading (true) Name
O PASI APT - 0 ft / 0 m 57.04713˚ -135.36160˚ - 0 nm - SITKA ROCKY GUTIERREZ
TOKEE FIX - 13,000 ft / 3,962 m 55.91250˚ -133.37881˚ 94 nm 94 nm 135° / 137° -
O PAKT APT - 0 ft / 0 m 55.35554˚ -131.71374˚ 65 nm 160 nm 120° / 121° KETCHIKAN INTL

Altitude Profile

Advertisement - Login to hide

PASI

Details ICAO PASI (SIT)
Name SITKA ROCKY GUTIERREZ
Region USA (Alaska)
Timezone America/Juneau (UTC-9.0)
Stats Elevation 21 ft / 6 m (AMSL)
Location 57.047128° -135.361597°
Runways 1
Magnetic Variation 18.750° E

METAR

PASI 162353Z 22005KT 4SM -RA BR FEW015 BKN024 OVC030 06/04 A2953

Decode

TAF

PASI 162330Z 1700/1724 22010KT P6SM -SHRA SCT020 BKN035 OVC050 WS020/27020KT TEMPO 1700/1704 6SM -SHRA BR SCT020 BKN025 OVC040 FM171200 18009KT P6SM -SHRA SCT030 BKN040 OVC050

Decode

Departure Runways

ID Width Length Bearing (true) Bearing (mag) Surface Threshold Offset Overrun Length
11 150 ft / 46 m 6,485 ft / 1,977 m 135.57° 116.82° Asphalt 0 ft / 0 m 0 ft / 0 m
29 150 ft / 46 m 6,485 ft / 1,977 m 315.59° 296.84° Asphalt 0 ft / 0 m 0 ft / 0 m

PAKT

Details ICAO PAKT (KTN)
Name KETCHIKAN INTL
Region USA (Alaska)
Timezone Unknown (UTC+0.0)
Stats Elevation 88 ft / 27 m (AMSL)
Location 55.355545° -131.713737°
Runways 1
Magnetic Variation 18.532° E

METAR

PAKT 162353Z 13007KT 4SM -RA BR OVC015 08/07 A2960

Decode

TAF

PAKT 162330Z 1700/1724 13014KT 5SM -SHRA BR SCT015 OVC025 WS020/27025KT TEMPO 1700/1702 3SM SHRA BR BKN015 OVC025 FM170600 15008KT P6SM -SHRA SCT025 OVC035 WS020/27025KT FM171800 15007KT P6SM -SHRA SCT035 OVC040 AMD LTD TO CLD VIS AND WIND 1706/1715

Decode

Destination Runways

ID Width Length Bearing (true) Bearing (mag) Surface Threshold Offset Overrun Length
11 150 ft / 46 m 7,485 ft / 2,281 m 135.66° 117.13° Asphalt 0 ft / 0 m 200 ft / 61 m
29 150 ft / 46 m 7,485 ft / 2,281 m 315.68° 297.15° Asphalt 0 ft / 0 m 100 ft / 30 m

Approach Navaids

Runway Type Ident Frequency Range Bearing (true) Bearing (mag) Slope Elevation
11 Localiser IECH 109.30 MHz 18 nm / 33 km 135.69° 117.16° - 66 ft / 20 m (AMSL)
11 Glidescope IECH 109.30 MHz 10 nm / 19 km 135.67° 117.14° 3.61° 76 ft / 23 m (AMSL)
11 DME IECH 109.30 MHz 18 nm / 33 km - - - 98 ft / 30 m (AMSL)

Popular Alternatives